| time (UTC) | temp F | wind direction | speed knots | gust knots | rain 1hr in | rain 24hr in | rain mn in | humidity % | barometer mb |
| 20260505100621 | 48 | 0 | 0.0 | 0.0 | 0.00 | 0.00 | 0.03 | 82 | 1010.8 |
| 20260505100121 | 48 | 332 | 0.0 | 0.0 | 0.00 | 0.00 | 0.03 | 82 | 1010.8 |
| 20260505095121 | 48 | 266 | 0.0 | 0.0 | 0.00 | 0.00 | 0.03 | 81 | 1010.8 |
| 20260505094121 | 48 | 316 | 0.0 | 0.0 | 0.00 | 0.00 | 0.03 | 82 | 1010.8 |
| 20260505093621 | 49 | 299 | 0.0 | 0.0 | 0.00 | 0.00 | 0.03 | 81 | 1010.5 |
| 20260505091121 | 49 | 340 | 0.0 | 0.0 | 0.00 | 0.00 | 0.03 | 79 | 1010.2 |
| 20260505090121 | 49 | 353 | 0.0 | 0.0 | 0.00 | 0.00 | 0.03 | 79 | 1009.8 |
| 20260505085121 | 49 | 2 | 0.0 | 0.0 | 0.00 | 0.00 | 0.03 | 79 | 1009.8 |
| 20260505084621 | 49 | 345 | 0.0 | 0.0 | 0.00 | 0.00 | 0.03 | 78 | 1009.8 |
| 20260505083621 | 49 | 319 | 0.0 | 0.0 | 0.00 | 0.00 | 0.03 | 78 | 1009.8 |
| 20260505083121 | 49 | 316 | 0.0 | 0.0 | 0.01 | 0.00 | 0.03 | 78 | 1009.8 |
| 20260505081621 | 49 | 298 | 0.0 | 0.0 | 0.01 | 0.00 | 0.03 | 78 | 1009.5 |
| 20260505080621 | 49 | 265 | 0.0 | 0.0 | 0.01 | 0.00 | 0.02 | 76 | 1009.1 |
| 20260505080121 | 49 | 18 | 0.0 | 0.0 | 0.01 | 0.00 | 0.02 | 77 | 1009.1 |
| 20260505075621 | 49 | 333 | 0.0 | 0.0 | 0.01 | 0.00 | 0.02 | 77 | 1009.1 |
| 20260505075121 | 49 | 315 | 0.0 | 0.0 | 0.01 | 0.00 | 0.02 | 77 | 1009.1 |
| 20260505074121 | 49 | 0 | 0.0 | 0.0 | 0.01 | 0.00 | 0.02 | 75 | 1009.1 |
| 20260505073621 | 49 | 333 | 0.0 | 0.0 | 0.01 | 0.00 | 0.02 | 74 | 1009.1 |
| 20260505072621 | 49 | 353 | 0.0 | 0.0 | 0.04 | 0.00 | 0.04 | 76 | 1009.1 |
| 20260505072121 | 49 | 33 | 0.0 | 0.0 | 0.03 | 0.00 | 0.04 | 76 | 1008.8 |
| 20260505071621 | 49 | 358 | 0.0 | 0.0 | 0.02 | 0.00 | 0.03 | 75 | 1009.1 |
| 20260505070621 | 49 | 310 | 0.0 | 0.0 | 0.02 | 0.00 | 0.02 | 72 | 1009.1 |
| 20260505070121 | 49 | 329 | 0.9 | 0.9 | 0.02 | 0.00 | 0.02 | 71 | 1009.1 |
| 20260505064621 | 50 | 31 | 0.9 | 0.9 | 0.01 | 0.00 | 0.01 | 69 | 1008.8 |
| 20260505063621 | 50 | 10 | 0.9 | 0.9 | 0.00 | 0.00 | 0.00 | 66 | 1008.8 |
| 20260505062121 | 51 | 15 | 1.7 | 1.7 | 0.00 | 0.00 | 0.00 | 59 | 1009.5 |
| 20260505061621 | 51 | 2 | 1.7 | 1.7 | 0.00 | 0.00 | 0.00 | 58 | 1009.8 |
| 20260505060621 | 51 | 15 | 1.7 | 1.7 | 0.00 | 0.00 | 0.00 | 58 | 1009.1 |
| 20260505055621 | 51 | 14 | 1.7 | 1.7 | 0.00 | 0.00 | 0.00 | 57 | 1009.1 |
| 20260505054621 | 52 | 24 | 2.6 | 2.6 | 0.00 | 0.00 | 0.00 | 57 | 1009.1 |
| 20260505054121 | 52 | 26 | 2.6 | 2.6 | 0.01 | 0.00 | 0.00 | 56 | 1009.1 |
| 20260505053621 | 52 | 24 | 2.6 | 2.6 | 0.02 | 0.00 | 0.00 | 56 | 1009.1 |
| 20260505052621 | 52 | 26 | 2.6 | 2.6 | 0.02 | 0.00 | 0.00 | 56 | 1008.8 |
| 20260505051621 | 52 | 29 | 2.6 | 2.6 | 0.02 | 0.00 | 0.00 | 55 | 1009.1 |
| 20260505050621 | 53 | 21 | 2.6 | 2.6 | 0.01 | 0.00 | 0.01 | 56 | 1009.1 |
| 20260505050121 | 53 | 21 | 2.6 | 2.6 | 0.01 | 0.00 | 0.01 | 56 | 1009.1 |
| 20260505041121 | 56 | 34 | 2.6 | 2.6 | 0.00 | 0.00 | 0.00 | 41 | 1009.1 |
| 20260505034121 | 57 | 30 | 3.5 | 3.5 | 0.00 | 0.00 | 0.00 | 43 | 1008.8 |
| 20260505033621 | 57 | 33 | 3.5 | 3.5 | 0.00 | 0.00 | 0.00 | 42 | 1008.1 |
| 20260505031121 | 57 | 24 | 3.5 | 3.5 | 0.00 | 0.00 | 0.00 | 41 | 1008.1 |
| 20260505030121 | 57 | 24 | 3.5 | 3.5 | 0.00 | 0.00 | 0.00 | 42 | 1008.1 |
| 20260505025121 | 57 | 32 | 3.5 | 3.5 | 0.00 | 0.00 | 0.00 | 42 | 1008.1 |
| 20260505024121 | 58 | 30 | 4.3 | 4.3 | 0.00 | 0.00 | 0.00 | 41 | 1007.5 |
| 20260505022621 | 58 | 33 | 4.3 | 4.3 | 0.00 | 0.00 | 0.00 | 42 | 1007.1 |
| 20260505022121 | 58 | 37 | 4.3 | 4.3 | 0.00 | 0.00 | 0.00 | 41 | 1007.1 |
| 20260505021121 | 59 | 38 | 4.3 | 4.3 | 0.00 | 0.00 | 0.00 | 42 | 1006.8 |
| 20260505020621 | 59 | 38 | 4.3 | 4.3 | 0.00 | 0.00 | 0.00 | 42 | 1007.1 |
| 20260505015621 | 60 | 37 | 4.3 | 4.3 | 0.00 | 0.00 | 0.00 | 40 | 1006.4 |
| 20260505014621 | 61 | 28 | 4.3 | 4.3 | 0.00 | 0.00 | 0.00 | 39 | 1006.4 |
| 20260505013621 | 62 | 32 | 4.3 | 4.3 | 0.00 | 0.00 | 0.00 | 38 | 1006.1 |
| 20260505013121 | 62 | 34 | 4.3 | 4.3 | 0.00 | 0.00 | 0.00 | 38 | 1006.1 |
| 20260505012121 | 62 | 36 | 4.3 | 4.3 | 0.00 | 0.00 | 0.00 | 36 | 1006.1 |
| 20260505011121 | 64 | 41 | 4.3 | 4.3 | 0.00 | 0.00 | 0.00 | 35 | 1005.8 |
| 20260505010121 | 65 | 27 | 4.3 | 4.3 | 0.00 | 0.00 | 0.00 | 34 | 1005.4 |
| 20260505005121 | 65 | 33 | 5.2 | 5.2 | 0.00 | 0.00 | 0.00 | 34 | 1005.1 |
| 20260505004621 | 66 | 28 | 4.3 | 4.3 | 0.00 | 0.00 | 0.00 | 33 | 1005.4 |
| 20260505003621 | 67 | 34 | 4.3 | 4.3 | 0.00 | 0.00 | 0.00 | 32 | 1005.1 |
| 20260505003121 | 68 | 24 | 4.3 | 4.3 | 0.00 | 0.00 | 0.00 | 33 | 1005.1 |
| 20260505002121 | 69 | 35 | 4.3 | 4.3 | 0.00 | 0.00 | 0.00 | 33 | 1004.7 |
| 20260505000621 | 69 | 20 | 4.3 | 4.3 | 0.00 | 0.00 | 0.00 | 32 | 1004.7 |
| 20260505000121 | 69 | 20 | 4.3 | 4.3 | 0.00 | 0.00 | 0.00 | 32 | 1004.7 |
| 20260504233621 | 71 | 15 | 4.3 | 4.3 | 0.00 | 0.00 | 0.00 | 32 | 1004.4 |
| 20260504232121 | 71 | 22 | 4.3 | 4.3 | 0.00 | 0.00 | 0.00 | 32 | 1004.1 |
| 20260504231621 | 72 | 33 | 4.3 | 4.3 | 0.00 | 0.00 | 0.00 | 30 | 1004.1 |
| 20260504231121 | 72 | 30 | 4.3 | 4.3 | 0.00 | 0.00 | 0.00 | 31 | 1004.1 |
| 20260504230137 | 73 | 26 | 3.5 | 3.5 | 0.00 | 0.00 | 0.00 | 31 | 1003.7 |